Time,TemperatureF,DewpointF,PressureIn,WindDirection,WindDirectionDegrees,WindSpeedMPH,WindSpeedGustMPH,Humidity,HourlyPrecipIn,Conditions,Clouds,dailyrainin,SoftwareType,DateUTC
2013-06-13 00:00:00,55.9,51.5,29.83,NW,311,0.0,0.0,85,0.00,,---,0.00,VWS V14.01,2013-06-13 04:00:00,
2013-06-13 00:01:00,55.9,51.8,29.83,NW,311,0.0,0.0,86,0.00,,---,0.00,VWS V14.01,2013-06-13 04:01:00,
2013-06-13 00:03:00,55.9,51.8,29.83,NW,311,0.0,0.0,86,0.00,,---,0.00,VWS V14.01,2013-06-13 04:03:00,
2013-06-13 00:04:00,55.9,51.8,29.83,NW,311,0.0,0.0,86,0.00,,---,0.00,VWS V14.01,2013-06-13 04:04:00,
2013-06-13 00:07:00,55.9,51.8,29.83,NW,311,0.0,0.0,86,0.00,,---,0.00,VWS V14.01,2013-06-13 04:07:00,
2013-06-13 00:11:00,55.7,51.6,29.83,NW,311,0.0,0.0,86,0.00,,---,0.00,VWS V14.01,2013-06-13 04:11:00,
2013-06-13 00:17:00,55.7,51.6,29.83,NW,311,0.0,0.0,86,0.00,,---,0.00,VWS V14.01,2013-06-13 04:17:00,
2013-06-13 00:23:00,55.6,51.8,29.83,NW,311,0.0,0.0,87,0.00,,---,0.00,VWS V14.01,2013-06-13 04:23:00,
2013-06-13 00:28:00,55.4,51.6,29.83,NW,311,0.0,0.0,87,0.00,,---,0.00,VWS V14.01,2013-06-13 04:28:00,
2013-06-13 00:33:00,55.4,51.3,29.82,NW,311,0.0,0.0,86,0.00,,---,0.00,VWS V14.01,2013-06-13 04:33:00,
2013-06-13 00:39:00,55.4,51.6,29.82,NW,311,0.0,0.0,87,0.00,,---,0.00,VWS V14.01,2013-06-13 04:39:00,
2013-06-13 00:44:00,55.4,51.6,29.82,NW,311,0.0,0.0,87,0.00,,---,0.00,VWS V14.01,2013-06-13 04:44:00,
2013-06-13 00:50:00,55.3,51.8,29.82,NW,323,0.0,0.0,88,0.00,,---,0.00,VWS V14.01,2013-06-13 04:50:00,
2013-06-13 00:55:00,55.1,51.6,29.82,North,360,0.0,0.0,88,0.00,,---,0.00,VWS V14.01,2013-06-13 04:55:00,
2013-06-13 01:00:00,55.0,51.5,29.82,North,360,0.0,0.0,88,0.00,,---,0.00,VWS V14.01,2013-06-13 05:00:00,
2013-06-13 01:05:00,54.5,51.0,29.83,North,360,0.0,0.0,88,0.00,,---,0.00,VWS V14.01,2013-06-13 05:05:00,
2013-06-13 01:10:00,54.2,50.7,29.82,North,360,0.0,0.0,88,0.00,,---,0.00,VWS V14.01,2013-06-13 05:10:00,
2013-06-13 01:15:00,54.1,50.6,29.83,North,360,0.0,0.0,88,0.00,,---,0.00,VWS V14.01,2013-06-13 05:15:00,
2013-06-13 01:20:00,53.8,50.6,29.83,North,360,0.0,0.0,89,0.00,,---,0.00,VWS V14.01,2013-06-13 05:20:00,
2013-06-13 01:25:00,53.5,50.3,29.83,North,360,0.0,0.0,89,0.00,,---,0.00,VWS V14.01,2013-06-13 05:25:00,
2013-06-13 01:30:00,53.5,50.3,29.83,North,360,0.0,0.0,89,0.00,,---,0.00,VWS V14.01,2013-06-13 05:30:00,
2013-06-13 01:35:00,53.3,50.2,29.83,North,360,0.0,0.0,89,0.00,,---,0.00,VWS V14.01,2013-06-13 05:35:00,
2013-06-13 01:41:00,53.3,50.5,29.83,North,360,0.0,0.0,90,0.00,,---,0.00,VWS V14.01,2013-06-13 05:41:00,
2013-06-13 01:47:00,53.3,50.5,29.82,North,360,0.0,0.0,90,0.00,,---,0.00,VWS V14.01,2013-06-13 05:47:00,
2013-06-13 01:52:00,53.3,50.5,29.82,North,360,0.0,0.0,90,0.00,,---,0.00,VWS V14.01,2013-06-13 05:52:00,
2013-06-13 01:57:00,53.3,50.5,29.82,North,360,0.0,0.0,90,0.00,,---,0.00,VWS V14.01,2013-06-13 05:57:00,
2013-06-13 02:02:00,53.3,50.5,29.82,North,360,0.0,0.0,90,0.00,,---,0.00,VWS V14.01,2013-06-13 06:02:00,
2013-06-13 02:07:00,53.3,50.7,29.82,North,360,0.0,0.0,91,0.00,,---,0.00,VWS V14.01,2013-06-13 06:07:00,
2013-06-13 02:12:00,53.3,50.7,29.81,North,360,0.0,0.0,91,0.00,,---,0.00,VWS V14.01,2013-06-13 06:12:00,
2013-06-13 02:17:00,53.2,50.7,29.81,North,360,0.0,0.0,91,0.00,,---,0.00,VWS V14.01,2013-06-13 06:17:00,
2013-06-13 02:22:00,53.2,50.7,29.81,North,360,0.0,0.0,91,0.00,,---,0.00,VWS V14.01,2013-06-13 06:22:00,
2013-06-13 02:27:00,53.2,50.7,29.80,North,360,0.0,0.0,91,0.00,,---,0.00,VWS V14.01,2013-06-13 06:27:00,
2013-06-13 02:33:00,53.1,50.5,29.80,North,360,0.0,0.0,91,0.00,,---,0.00,VWS V14.01,2013-06-13 06:33:00,
2013-06-13 02:38:00,52.9,50.3,29.80,North,360,0.0,0.0,91,0.00,,---,0.00,VWS V14.01,2013-06-13 06:38:00,
2013-06-13 02:44:00,52.8,50.2,29.80,North,360,0.0,0.0,91,0.00,,---,0.00,VWS V14.01,2013-06-13 06:44:00,
2013-06-13 02:49:00,52.6,50.0,29.80,North,360,0.0,0.0,91,0.00,,---,0.00,VWS V14.01,2013-06-13 06:49:00,
2013-06-13 02:54:00,52.5,50.0,29.81,North,360,0.0,0.0,91,0.00,,---,0.00,VWS V14.01,2013-06-13 06:54:00,
2013-06-13 02:59:00,52.3,49.8,29.81,North,360,0.0,0.0,91,0.00,,---,0.00,VWS V14.01,2013-06-13 06:59:00,
2013-06-13 03:04:00,52.3,49.8,29.81,North,360,0.0,0.0,91,0.00,,---,0.00,VWS V14.01,2013-06-13 07:04:00,
2013-06-13 03:09:00,52.2,49.7,29.82,North,360,0.0,0.0,91,0.00,,---,0.00,VWS V14.01,2013-06-13 07:09:00,
2013-06-13 03:15:00,52.2,49.7,29.81,North,360,0.0,0.0,91,0.00,,---,0.00,VWS V14.01,2013-06-13 07:15:00,
2013-06-13 03:20:00,52.0,49.8,29.82,North,360,0.0,0.0,92,0.00,,---,0.00,VWS V14.01,2013-06-13 07:20:00,
2013-06-13 03:26:00,52.2,50.0,29.82,North,360,0.0,0.0,92,0.00,,---,0.00,VWS V14.01,2013-06-13 07:26:00,
2013-06-13 03:31:00,52.2,50.0,29.82,North,360,0.0,0.0,92,0.00,,---,0.00,VWS V14.01,2013-06-13 07:31:00,
2013-06-13 03:36:00,52.2,50.0,29.82,North,360,0.0,0.0,92,0.00,,---,0.00,VWS V14.01,2013-06-13 07:36:00,
2013-06-13 03:42:00,52.2,50.0,29.81,North,360,0.0,0.0,92,0.00,,---,0.00,VWS V14.01,2013-06-13 07:42:00,
2013-06-13 03:48:00,52.2,50.0,29.81,North,360,0.0,0.0,92,0.00,,---,0.00,VWS V14.01,2013-06-13 07:48:00,
2013-06-13 03:53:00,52.2,50.0,29.81,North,360,0.0,0.0,92,0.00,,---,0.00,VWS V14.01,2013-06-13 07:53:00,
2013-06-13 03:58:00,52.0,49.8,29.80,North,360,0.0,0.0,92,0.00,,---,0.00,VWS V14.01,2013-06-13 07:58:00,
2013-06-13 04:04:00,51.7,49.5,29.81,North,360,0.0,0.0,92,0.00,,---,0.00,VWS V14.01,2013-06-13 08:04:00,
2013-06-13 04:09:00,51.6,49.4,29.81,North,360,0.0,0.0,92,0.00,,---,0.00,VWS V14.01,2013-06-13 08:09:00,
2013-06-13 04:14:00,51.4,49.2,29.81,North,360,0.0,0.0,92,0.00,,---,0.00,VWS V14.01,2013-06-13 08:14:00,
2013-06-13 04:19:00,51.4,49.2,29.81,North,360,0.0,0.0,92,0.00,,---,0.00,VWS V14.01,2013-06-13 08:19:00,
2013-06-13 04:24:00,51.6,49.7,29.80,North,360,0.0,0.0,93,0.00,,---,0.00,VWS V14.01,2013-06-13 08:24:00,
2013-06-13 04:29:00,51.6,49.7,29.81,North,360,0.0,0.0,93,0.00,,---,0.00,VWS V14.01,2013-06-13 08:29:00,
2013-06-13 04:34:00,51.4,49.5,29.81,North,360,0.0,0.0,93,0.00,,---,0.00,VWS V14.01,2013-06-13 08:34:00,
2013-06-13 04:39:00,51.4,49.5,29.81,North,360,0.0,0.0,93,0.00,,---,0.00,VWS V14.01,2013-06-13 08:39:00,
2013-06-13 04:44:00,51.4,49.5,29.81,North,360,0.0,0.0,93,0.00,,---,0.00,VWS V14.01,2013-06-13 08:44:00,
2013-06-13 04:50:00,51.4,49.5,29.81,North,360,0.0,0.0,93,0.00,,---,0.00,VWS V14.01,2013-06-13 08:50:00,
2013-06-13 04:55:00,51.4,49.5,29.80,North,360,0.0,0.0,93,0.00,,---,0.00,VWS V14.01,2013-06-13 08:55:00,
2013-06-13 05:00:00,51.4,49.5,29.81,North,360,0.0,0.0,93,0.00,,---,0.00,VWS V14.01,2013-06-13 09:00:00,
2013-06-13 05:05:00,51.4,49.5,29.80,North,360,0.0,0.0,93,0.00,,---,0.00,VWS V14.01,2013-06-13 09:05:00,
2013-06-13 05:10:00,51.4,49.5,29.80,North,360,0.0,0.0,93,0.00,,---,0.00,VWS V14.01,2013-06-13 09:10:00,
2013-06-13 05:16:00,51.6,49.7,29.80,North,360,0.0,0.0,93,0.00,,---,0.00,VWS V14.01,2013-06-13 09:16:00,
2013-06-13 05:21:00,51.6,49.7,29.80,North,360,0.0,0.0,93,0.00,,---,0.00,VWS V14.01,2013-06-13 09:21:00,
2013-06-13 05:27:00,51.7,50.0,29.80,North,360,0.0,0.0,94,0.00,,---,0.00,VWS V14.01,2013-06-13 09:27:00,
2013-06-13 05:32:00,51.7,50.0,29.81,North,360,0.0,0.0,94,0.00,,---,0.00,VWS V14.01,2013-06-13 09:32:00,
2013-06-13 05:37:00,51.7,50.0,29.81,North,360,0.0,0.0,94,0.00,,---,0.00,VWS V14.01,2013-06-13 09:37:00,
2013-06-13 05:42:00,51.9,50.2,29.81,North,360,0.0,0.0,94,0.00,,---,0.00,VWS V14.01,2013-06-13 09:42:00,
2013-06-13 05:47:00,51.9,50.2,29.81,North,360,0.0,0.0,94,0.00,,---,0.00,VWS V14.01,2013-06-13 09:47:00,
2013-06-13 05:52:00,52.0,50.3,29.81,North,360,0.0,0.0,94,0.00,,---,0.00,VWS V14.01,2013-06-13 09:52:00,
2013-06-13 05:57:00,52.2,50.5,29.81,North,360,0.0,0.0,94,0.00,,---,0.00,VWS V14.01,2013-06-13 09:57:00,
2013-06-13 06:03:00,52.3,50.6,29.81,North,360,0.0,0.0,94,0.00,,---,0.00,VWS V14.01,2013-06-13 10:03:00,
2013-06-13 06:08:00,52.5,50.8,29.81,North,360,0.0,0.0,94,0.00,,---,0.00,VWS V14.01,2013-06-13 10:08:00,
2013-06-13 06:13:00,52.6,50.9,29.82,North,360,0.0,0.0,94,0.00,,---,0.00,VWS V14.01,2013-06-13 10:13:00,
2013-06-13 06:19:00,52.8,51.1,29.81,North,360,0.0,0.0,94,0.00,,---,0.00,VWS V14.01,2013-06-13 10:19:00,
2013-06-13 06:24:00,52.9,51.5,29.81,North,360,0.0,0.0,95,0.00,,---,0.00,VWS V14.01,2013-06-13 10:24:00,
2013-06-13 06:29:00,53.1,51.7,29.81,North,360,0.0,0.0,95,0.00,,---,0.00,VWS V14.01,2013-06-13 10:29:00,
2013-06-13 06:34:00,53.2,51.8,29.81,North,360,0.0,0.0,95,0.00,,---,0.00,VWS V14.01,2013-06-13 10:34:00,
2013-06-13 06:39:00,53.2,51.5,29.81,North,360,0.0,0.0,94,0.00,,---,0.00,VWS V14.01,2013-06-13 10:39:00,
2013-06-13 06:45:00,53.2,51.8,29.81,North,360,0.0,0.0,95,0.00,,---,0.00,VWS V14.01,2013-06-13 10:45:00,
2013-06-13 06:50:00,53.3,51.9,29.80,North,360,0.0,0.0,95,0.00,,---,0.00,VWS V14.01,2013-06-13 10:50:00,
2013-06-13 06:56:00,53.3,51.6,29.80,North,360,0.0,0.0,94,0.00,,---,0.00,VWS V14.01,2013-06-13 10:56:00,
2013-06-13 07:01:00,53.3,51.6,29.80,North,360,0.0,0.0,94,0.00,,---,0.00,VWS V14.01,2013-06-13 11:01:00,
2013-06-13 07:06:00,53.3,51.6,29.80,North,360,0.0,0.0,94,0.00,,---,0.00,VWS V14.01,2013-06-13 11:06:00,
2013-06-13 07:11:00,53.3,51.6,29.80,North,360,0.0,0.0,94,0.00,,---,0.00,VWS V14.01,2013-06-13 11:11:00,
2013-06-13 07:16:00,53.3,51.6,29.80,North,360,0.0,0.0,94,0.00,,---,0.00,VWS V14.01,2013-06-13 11:16:00,
2013-06-13 07:21:00,53.3,51.6,29.79,North,360,0.0,0.0,94,0.00,,---,0.00,VWS V14.01,2013-06-13 11:21:00,
2013-06-13 07:26:00,53.5,51.8,29.79,North,360,0.0,0.0,94,0.00,,---,0.00,VWS V14.01,2013-06-13 11:26:00,
2013-06-13 07:31:00,53.5,51.8,29.79,North,360,0.0,0.0,94,0.00,,---,0.00,VWS V14.01,2013-06-13 11:31:00,
2013-06-13 07:36:00,53.6,51.9,29.78,North,360,0.0,0.0,94,0.00,,---,0.00,VWS V14.01,2013-06-13 11:36:00,
2013-06-13 07:41:00,53.6,51.9,29.78,North,360,0.0,0.0,94,0.00,,---,0.00,VWS V14.01,2013-06-13 11:41:00,
2013-06-13 07:47:00,53.8,52.1,29.78,North,360,0.0,0.0,94,0.00,,---,0.00,VWS V14.01,2013-06-13 11:47:00,
2013-06-13 07:52:00,53.8,52.1,29.78,North,360,0.0,0.0,94,0.00,,---,0.00,VWS V14.01,2013-06-13 11:52:00,
2013-06-13 07:57:00,53.8,52.1,29.78,North,360,0.0,0.0,94,0.00,,---,0.00,VWS V14.01,2013-06-13 11:57:00,
2013-06-13 08:02:00,53.9,52.5,29.78,North,360,0.0,0.0,95,0.00,,---,0.00,VWS V14.01,2013-06-13 12:02:00,
2013-06-13 08:07:00,54.1,52.7,29.78,North,360,0.0,0.0,95,0.00,,---,0.00,VWS V14.01,2013-06-13 12:07:00,
2013-06-13 08:12:00,54.1,52.7,29.78,North,360,0.0,0.0,95,0.01,,---,0.01,VWS V14.01,2013-06-13 12:12:00,
2013-06-13 08:18:00,54.2,52.8,29.78,North,360,0.0,0.0,95,0.01,,---,0.01,VWS V14.01,2013-06-13 12:18:00,
2013-06-13 08:23:00,54.4,53.0,29.78,North,360,0.0,0.0,95,0.01,,---,0.01,VWS V14.01,2013-06-13 12:23:00,
2013-06-13 08:28:00,54.5,53.1,29.78,North,360,0.0,0.0,95,0.01,,---,0.01,VWS V14.01,2013-06-13 12:28:00,
2013-06-13 08:33:00,54.7,53.3,29.78,North,360,0.0,0.0,95,0.02,,---,0.02,VWS V14.01,2013-06-13 12:33:00,
2013-06-13 08:38:00,54.8,53.4,29.77,North,360,0.0,0.0,95,0.02,,---,0.02,VWS V14.01,2013-06-13 12:38:00,
2013-06-13 08:43:00,55.0,53.6,29.77,North,360,0.0,0.0,95,0.02,,---,0.02,VWS V14.01,2013-06-13 12:43:00,
2013-06-13 08:48:00,55.1,54.0,29.76,North,360,0.0,0.0,96,0.03,,---,0.03,VWS V14.01,2013-06-13 12:48:00,
2013-06-13 08:53:00,55.4,54.3,29.77,North,360,0.0,0.0,96,0.04,,---,0.04,VWS V14.01,2013-06-13 12:53:00,
2013-06-13 08:58:00,55.6,54.5,29.77,North,360,0.0,0.0,96,0.04,,---,0.04,VWS V14.01,2013-06-13 12:58:00,
2013-06-13 09:03:00,55.7,54.6,29.77,North,360,0.0,0.0,96,0.04,,---,0.04,VWS V14.01,2013-06-13 13:03:00,
2013-06-13 09:09:00,56.0,54.9,29.77,North,360,0.0,0.0,96,0.04,,---,0.04,VWS V14.01,2013-06-13 13:09:00,
2013-06-13 09:14:00,56.2,55.1,29.77,North,360,0.0,0.0,96,0.03,,---,0.04,VWS V14.01,2013-06-13 13:14:00,
2013-06-13 09:19:00,56.3,55.2,29.77,North,360,0.0,0.0,96,0.03,,---,0.04,VWS V14.01,2013-06-13 13:19:00,
2013-06-13 09:24:00,56.3,55.2,29.77,North,360,0.0,0.0,96,0.03,,---,0.04,VWS V14.01,2013-06-13 13:24:00,
2013-06-13 09:30:00,56.5,55.4,29.77,North,360,0.0,0.0,96,0.04,,---,0.05,VWS V14.01,2013-06-13 13:30:00,
2013-06-13 09:35:00,56.6,55.5,29.76,North,360,0.0,0.0,96,0.04,,---,0.06,VWS V14.01,2013-06-13 13:35:00,
2013-06-13 09:40:00,56.6,55.5,29.76,North,360,0.0,0.0,96,0.04,,---,0.06,VWS V14.01,2013-06-13 13:40:00,
2013-06-13 09:45:00,56.6,55.5,29.75,North,360,0.0,0.0,96,0.04,,---,0.07,VWS V14.01,2013-06-13 13:45:00,
2013-06-13 09:50:00,56.7,55.6,29.75,North,350,0.0,0.0,96,0.05,,---,0.08,VWS V14.01,2013-06-13 13:50:00,
2013-06-13 09:55:00,56.7,55.6,29.75,NNW,337,0.0,0.0,96,0.04,,---,0.08,VWS V14.01,2013-06-13 13:55:00,
2013-06-13 10:00:00,56.6,55.5,29.75,NNW,337,0.0,0.0,96,0.04,,---,0.08,VWS V14.01,2013-06-13 14:00:00,
2013-06-13 10:06:00,56.6,55.5,29.75,NNW,337,0.0,0.0,96,0.04,,---,0.08,VWS V14.01,2013-06-13 14:06:00,
2013-06-13 10:11:00,56.5,55.4,29.75,SE,132,0.0,0.0,96,0.04,,---,0.08,VWS V14.01,2013-06-13 14:11:00,
2013-06-13 10:16:00,56.5,55.4,29.75,SE,132,0.0,0.0,96,0.05,,---,0.09,VWS V14.01,2013-06-13 14:16:00,
2013-06-13 10:21:00,56.6,55.5,29.74,SE,132,0.0,0.0,96,0.06,,---,0.10,VWS V14.01,2013-06-13 14:21:00,
2013-06-13 10:26:00,56.6,55.5,29.74,SSE,159,0.0,0.0,96,0.08,,---,0.12,VWS V14.01,2013-06-13 14:26:00,
2013-06-13 10:31:00,56.6,55.5,29.75,SSE,159,0.0,0.0,96,0.09,,---,0.14,VWS V14.01,2013-06-13 14:31:00,
2013-06-13 10:36:00,56.6,55.5,29.75,SSE,159,0.0,0.0,96,0.12,,---,0.18,VWS V14.01,2013-06-13 14:36:00,
2013-06-13 10:41:00,56.5,55.4,29.74,SSE,159,0.0,0.0,96,0.17,,---,0.23,VWS V14.01,2013-06-13 14:41:00,
2013-06-13 10:46:00,56.5,55.4,29.77,SSE,159,1.0,2.0,96,0.17,,---,0.24,VWS V14.01,2013-06-13 14:46:00,
2013-06-13 10:51:00,56.5,55.4,29.79,South,169,0.0,1.0,96,0.19,,---,0.27,VWS V14.01,2013-06-13 14:51:00,
2013-06-13 10:56:00,56.3,55.2,29.72,NNW,327,0.0,2.0,96,0.24,,---,0.32,VWS V14.01,2013-06-13 14:56:00,
2013-06-13 11:01:00,56.3,55.2,29.75,NW,324,0.0,0.0,96,0.24,,---,0.32,VWS V14.01,2013-06-13 15:01:00,
2013-06-13 11:06:00,56.3,55.2,29.75,NW,324,0.0,0.0,96,0.26,,---,0.34,VWS V14.01,2013-06-13 15:06:00,
2013-06-13 11:11:00,56.3,55.2,29.75,NW,324,0.0,0.0,96,0.26,,---,0.34,VWS V14.01,2013-06-13 15:11:00,
2013-06-13 11:17:00,56.3,55.2,29.75,NW,324,0.0,0.0,96,0.27,,---,0.36,VWS V14.01,2013-06-13 15:17:00,
2013-06-13 11:22:00,56.5,55.4,29.74,East,94,0.0,0.0,96,0.27,,---,0.37,VWS V14.01,2013-06-13 15:22:00,
2013-06-13 11:27:00,56.5,55.4,29.73,SSE,158,0.0,1.0,96,0.26,,---,0.38,VWS V14.01,2013-06-13 15:27:00,
2013-06-13 11:33:00,56.5,55.4,29.72,NNW,341,0.0,0.0,96,0.24,,---,0.38,VWS V14.01,2013-06-13 15:33:00,
2013-06-13 11:38:00,56.6,55.5,29.71,WNW,294,0.0,0.0,96,0.19,,---,0.38,VWS V14.01,2013-06-13 15:38:00,
2013-06-13 11:43:00,56.6,55.5,29.70,WNW,294,0.0,0.0,96,0.15,,---,0.39,VWS V14.01,2013-06-13 15:43:00,
2013-06-13 11:48:00,56.7,55.6,29.70,SSW,209,0.0,0.0,96,0.15,,---,0.40,VWS V14.01,2013-06-13 15:48:00,
2013-06-13 11:53:00,56.7,55.6,29.69,ESE,119,0.0,0.0,96,0.12,,---,0.40,VWS V14.01,2013-06-13 15:53:00,
2013-06-13 11:58:00,56.7,55.6,29.68,WNW,294,0.0,0.0,96,0.09,,---,0.41,VWS V14.01,2013-06-13 15:58:00,
2013-06-13 12:03:00,56.7,55.6,29.67,ENE,78,0.0,4.0,96,0.09,,---,0.42,VWS V14.01,2013-06-13 16:03:00,
2013-06-13 12:09:00,56.7,55.6,29.68,ESE,121,0.0,2.0,96,0.09,,---,0.43,VWS V14.01,2013-06-13 16:09:00,
2013-06-13 12:14:00,56.9,55.8,29.68,ESE,118,2.0,4.0,96,0.09,,---,0.44,VWS V14.01,2013-06-13 16:14:00,
2013-06-13 12:19:00,56.9,55.8,29.70,East,87,0.0,0.0,96,0.10,,---,0.46,VWS V14.01,2013-06-13 16:19:00,
2013-06-13 12:24:00,56.9,55.8,29.71,North,5,0.0,0.0,96,0.10,,---,0.47,VWS V14.01,2013-06-13 16:24:00,
2013-06-13 12:29:00,57.0,55.9,29.71,West,262,0.0,1.0,96,0.10,,---,0.48,VWS V14.01,2013-06-13 16:29:00,
2013-06-13 12:34:00,57.0,55.9,29.70,SE,138,0.0,0.0,96,0.12,,---,0.50,VWS V14.01,2013-06-13 16:34:00,
2013-06-13 12:39:00,57.0,55.9,29.71,SSE,152,0.0,0.0,96,0.15,,---,0.53,VWS V14.01,2013-06-13 16:39:00,
2013-06-13 12:45:00,57.0,55.9,29.70,East,88,0.0,0.0,96,0.17,,---,0.56,VWS V14.01,2013-06-13 16:45:00,
2013-06-13 12:51:00,57.2,56.1,29.69,WNW,289,0.0,0.0,96,0.17,,---,0.57,VWS V14.01,2013-06-13 16:51:00,
2013-06-13 12:56:00,57.0,55.9,29.68,SW,234,0.0,1.0,96,0.17,,---,0.57,VWS V14.01,2013-06-13 16:56:00,
2013-06-13 13:01:00,57.3,56.2,29.68,SE,136,0.0,2.0,96,0.16,,---,0.57,VWS V14.01,2013-06-13 17:01:00,
2013-06-13 13:06:00,57.3,56.2,29.68,WNW,303,0.0,2.0,96,0.14,,---,0.57,VWS V14.01,2013-06-13 17:06:00,
2013-06-13 13:11:00,57.3,56.2,29.68,ENE,63,0.0,4.0,96,0.14,,---,0.57,VWS V14.01,2013-06-13 17:11:00,
2013-06-13 13:16:00,57.2,56.1,29.67,WNW,303,0.0,1.0,96,0.13,,---,0.57,VWS V14.01,2013-06-13 17:16:00,
2013-06-13 13:22:00,57.3,56.2,29.67,NW,307,0.0,0.0,96,0.11,,---,0.57,VWS V14.01,2013-06-13 17:22:00,
2013-06-13 13:27:00,57.3,56.2,29.66,South,172,0.0,0.0,96,0.10,,---,0.57,VWS V14.01,2013-06-13 17:27:00,
2013-06-13 13:32:00,57.6,56.5,29.65,NNW,344,0.0,0.0,96,0.08,,---,0.57,VWS V14.01,2013-06-13 17:32:00,
2013-06-13 13:38:00,57.8,56.7,29.65,NNE,30,0.0,1.0,96,0.05,,---,0.57,VWS V14.01,2013-06-13 17:38:00,
2013-06-13 13:43:00,58.0,56.9,29.65,WNW,298,0.0,1.0,96,0.02,,---,0.57,VWS V14.01,2013-06-13 17:43:00,
2013-06-13 13:48:00,58.1,57.0,29.65,NNW,330,0.0,2.0,96,0.01,,---,0.57,VWS V14.01,2013-06-13 17:48:00,
2013-06-13 13:53:00,58.0,56.9,29.65,NNW,339,3.0,3.0,96,0.00,,---,0.57,VWS V14.01,2013-06-13 17:53:00,
2013-06-13 13:58:00,57.8,56.7,29.64,SSE,161,1.0,4.0,96,0.00,,---,0.57,VWS V14.01,2013-06-13 17:58:00,
2013-06-13 14:03:00,57.8,56.4,29.64,SSW,203,0.0,2.0,95,0.00,,---,0.57,VWS V14.01,2013-06-13 18:03:00,
2013-06-13 14:09:00,57.8,56.4,29.63,SW,232,0.0,1.0,95,0.00,,---,0.57,VWS V14.01,2013-06-13 18:09:00,
2013-06-13 14:14:00,58.0,56.6,29.63,South,178,0.0,6.0,95,0.00,,---,0.57,VWS V14.01,2013-06-13 18:14:00,
2013-06-13 14:19:00,58.0,56.6,29.64,NW,311,0.0,0.0,95,0.00,,---,0.57,VWS V14.01,2013-06-13 18:19:00,
2013-06-13 14:24:00,57.8,56.1,29.64,South,176,0.0,2.0,94,0.00,,---,0.57,VWS V14.01,2013-06-13 18:24:00,
2013-06-13 14:30:00,57.8,56.1,29.64,ESE,120,3.0,3.0,94,0.00,,---,0.57,VWS V14.01,2013-06-13 18:30:00,
2013-06-13 14:35:00,57.6,55.9,29.64,West,260,0.0,0.0,94,0.00,,---,0.57,VWS V14.01,2013-06-13 18:35:00,
2013-06-13 14:40:00,57.6,55.9,29.65,WSW,243,0.0,0.0,94,0.00,,---,0.57,VWS V14.01,2013-06-13 18:40:00,
2013-06-13 14:45:00,57.6,55.9,29.65,NW,308,0.0,1.0,94,0.00,,---,0.57,VWS V14.01,2013-06-13 18:45:00,
2013-06-13 14:50:00,57.6,55.9,29.65,East,91,5.0,5.0,94,0.00,,---,0.57,VWS V14.01,2013-06-13 18:50:00,
2013-06-13 14:55:00,57.5,55.5,29.65,South,186,0.0,2.0,93,0.00,,---,0.57,VWS V14.01,2013-06-13 18:55:00,
2013-06-13 15:01:00,57.5,55.5,29.65,SW,220,0.0,3.0,93,0.00,,---,0.57,VWS V14.01,2013-06-13 19:01:00,
2013-06-13 15:06:00,57.3,55.3,29.65,SW,229,3.0,3.0,93,0.00,,---,0.57,VWS V14.01,2013-06-13 19:06:00,
2013-06-13 15:11:00,57.3,55.3,29.65,ESE,107,0.0,2.0,93,0.00,,---,0.57,VWS V14.01,2013-06-13 19:11:00,
2013-06-13 15:16:00,57.3,55.3,29.64,West,261,0.0,0.0,93,0.00,,---,0.57,VWS V14.01,2013-06-13 19:16:00,
2013-06-13 15:21:00,57.3,55.3,29.64,SSE,151,2.0,3.0,93,0.00,,---,0.57,VWS V14.01,2013-06-13 19:21:00,
2013-06-13 15:26:00,57.5,55.5,29.63,South,180,1.0,1.0,93,0.00,,---,0.57,VWS V14.01,2013-06-13 19:26:00,
2013-06-13 15:31:00,57.5,55.5,29.62,North,360,0.0,0.0,93,0.00,,---,0.57,VWS V14.01,2013-06-13 19:31:00,
2013-06-13 15:36:00,57.5,55.5,29.62,WNW,283,0.0,0.0,93,0.00,,---,0.57,VWS V14.01,2013-06-13 19:36:00,
2013-06-13 15:41:00,57.5,55.5,29.62,WSW,251,0.0,3.0,93,0.00,,---,0.57,VWS V14.01,2013-06-13 19:41:00,
2013-06-13 15:46:00,57.5,55.5,29.62,West,260,0.0,2.0,93,0.00,,---,0.57,VWS V14.01,2013-06-13 19:46:00,
2013-06-13 15:52:00,57.3,55.3,29.61,South,187,3.0,5.0,93,0.00,,---,0.57,VWS V14.01,2013-06-13 19:52:00,
2013-06-13 15:57:00,57.3,55.3,29.61,North,355,1.0,3.0,93,0.00,,---,0.57,VWS V14.01,2013-06-13 19:57:00,
2013-06-13 16:03:00,57.3,55.3,29.61,SSW,203,0.0,2.0,93,0.00,,---,0.57,VWS V14.01,2013-06-13 20:03:00,
2013-06-13 16:08:00,57.3,55.3,29.61,NE,38,0.0,2.0,93,0.00,,---,0.57,VWS V14.01,2013-06-13 20:08:00,
2013-06-13 16:13:00,57.3,55.3,29.60,NNE,18,1.0,3.0,93,0.00,,---,0.57,VWS V14.01,2013-06-13 20:13:00,
2013-06-13 16:18:00,57.3,55.3,29.60,NW,315,0.0,2.0,93,0.00,,---,0.57,VWS V14.01,2013-06-13 20:18:00,
2013-06-13 16:24:00,57.3,55.3,29.60,WSW,252,0.0,0.0,93,0.00,,---,0.57,VWS V14.01,2013-06-13 20:24:00,
2013-06-13 16:29:00,57.3,55.0,29.60,SW,236,0.0,1.0,92,0.00,,---,0.57,VWS V14.01,2013-06-13 20:29:00,
2013-06-13 16:34:00,57.2,55.2,29.60,SW,236,0.0,0.0,93,0.00,,---,0.57,VWS V14.01,2013-06-13 20:34:00,
2013-06-13 16:39:00,57.2,55.2,29.60,SW,217,0.0,3.0,93,0.00,,---,0.57,VWS V14.01,2013-06-13 20:39:00,
2013-06-13 16:44:00,57.2,55.2,29.59,East,101,0.0,0.0,93,0.00,,---,0.57,VWS V14.01,2013-06-13 20:44:00,
2013-06-13 16:49:00,57.2,55.2,29.59,SW,227,0.0,0.0,93,0.00,,---,0.57,VWS V14.01,2013-06-13 20:49:00,
2013-06-13 16:54:00,57.2,55.2,29.59,West,271,0.0,0.0,93,0.00,,---,0.57,VWS V14.01,2013-06-13 20:54:00,
2013-06-13 16:59:00,57.0,55.0,29.58,SSW,198,2.0,2.0,93,0.00,,---,0.57,VWS V14.01,2013-06-13 20:59:00,
2013-06-13 17:04:00,57.0,55.0,29.59,ENE,71,0.0,4.0,93,0.00,,---,0.57,VWS V14.01,2013-06-13 21:04:00,
2013-06-13 17:09:00,57.0,55.0,29.58,WNW,288,0.0,1.0,93,0.01,,---,0.58,VWS V14.01,2013-06-13 21:09:00,
2013-06-13 17:14:00,57.0,55.0,29.58,NNW,340,0.0,0.0,93,0.01,,---,0.58,VWS V14.01,2013-06-13 21:14:00,
2013-06-13 17:19:00,56.9,54.9,29.58,ENE,71,0.0,5.0,93,0.01,,---,0.58,VWS V14.01,2013-06-13 21:19:00,
2013-06-13 17:24:00,56.9,55.2,29.58,WNW,285,0.0,0.0,94,0.01,,---,0.58,VWS V14.01,2013-06-13 21:24:00,
2013-06-13 17:29:00,56.9,55.2,29.58,SSE,148,0.0,4.0,94,0.01,,---,0.58,VWS V14.01,2013-06-13 21:29:00,
2013-06-13 17:34:00,56.9,55.2,29.58,West,278,1.0,1.0,94,0.01,,---,0.58,VWS V14.01,2013-06-13 21:34:00,
2013-06-13 17:39:00,56.7,55.0,29.58,NE,53,4.0,4.0,94,0.01,,---,0.58,VWS V14.01,2013-06-13 21:39:00,
2013-06-13 17:44:00,56.7,55.0,29.58,ESE,119,0.0,0.0,94,0.01,,---,0.58,VWS V14.01,2013-06-13 21:44:00,
2013-06-13 17:49:00,56.6,54.9,29.57,SE,146,0.0,1.0,94,0.01,,---,0.58,VWS V14.01,2013-06-13 21:49:00,
2013-06-13 17:54:00,56.6,54.9,29.57,West,276,0.0,0.0,94,0.01,,---,0.58,VWS V14.01,2013-06-13 21:54:00,
2013-06-13 17:59:00,56.6,54.9,29.57,West,276,0.0,0.0,94,0.01,,---,0.58,VWS V14.01,2013-06-13 21:59:00,
2013-06-13 18:04:00,56.6,54.9,29.57,WNW,294,0.0,3.0,94,0.01,,---,0.58,VWS V14.01,2013-06-13 22:04:00,
2013-06-13 18:09:00,56.5,54.8,29.57,WNW,294,0.0,0.0,94,0.00,,---,0.58,VWS V14.01,2013-06-13 22:09:00,
2013-06-13 18:14:00,56.5,54.8,29.57,WNW,294,0.0,1.0,94,0.01,,---,0.59,VWS V14.01,2013-06-13 22:14:00,
2013-06-13 18:19:00,56.5,54.8,29.57,WNW,294,0.0,0.0,94,0.03,,---,0.61,VWS V14.01,2013-06-13 22:19:00,
2013-06-13 18:24:00,56.5,54.8,29.57,South,190,0.0,0.0,94,0.04,,---,0.62,VWS V14.01,2013-06-13 22:24:00,
2013-06-13 18:29:00,56.3,54.6,29.57,NNW,340,0.0,0.0,94,0.04,,---,0.62,VWS V14.01,2013-06-13 22:29:00,
2013-06-13 18:35:00,56.3,54.9,29.57,South,188,0.0,0.0,95,0.05,,---,0.63,VWS V14.01,2013-06-13 22:35:00,
2013-06-13 18:40:00,56.3,54.9,29.57,South,188,0.0,0.0,95,0.06,,---,0.64,VWS V14.01,2013-06-13 22:40:00,
2013-06-13 18:46:00,56.2,54.8,29.57,South,188,0.0,0.0,95,0.07,,---,0.65,VWS V14.01,2013-06-13 22:46:00,
2013-06-13 18:52:00,56.2,54.8,29.58,South,188,0.0,0.0,95,0.10,,---,0.68,VWS V14.01,2013-06-13 22:52:00,
2013-06-13 18:58:00,56.2,54.8,29.57,South,178,0.0,0.0,95,0.12,,---,0.70,VWS V14.01,2013-06-13 22:58:00,
2013-06-13 19:03:00,56.0,54.6,29.57,NE,34,0.0,2.0,95,0.14,,---,0.72,VWS V14.01,2013-06-13 23:03:00,
2013-06-13 19:08:00,55.9,54.5,29.57,North,5,0.0,0.0,95,0.16,,---,0.74,VWS V14.01,2013-06-13 23:08:00,
2013-06-13 19:13:00,55.7,54.3,29.58,NW,325,0.0,3.0,95,0.16,,---,0.75,VWS V14.01,2013-06-13 23:13:00,
2013-06-13 19:18:00,55.7,54.3,29.58,SW,234,0.0,1.0,95,0.15,,---,0.75,VWS V14.01,2013-06-13 23:18:00,
2013-06-13 19:23:00,55.7,54.3,29.58,SSW,209,0.0,2.0,95,0.15,,---,0.76,VWS V14.01,2013-06-13 23:23:00,
2013-06-13 19:28:00,55.6,54.2,29.58,West,275,0.0,0.0,95,0.14,,---,0.76,VWS V14.01,2013-06-13 23:28:00,
2013-06-13 19:33:00,55.6,54.2,29.58,North,5,0.0,2.0,95,0.13,,---,0.76,VWS V14.01,2013-06-13 23:33:00,
2013-06-13 19:38:00,55.6,54.2,29.58,SSW,205,2.0,2.0,95,0.13,,---,0.77,VWS V14.01,2013-06-13 23:38:00,
2013-06-13 19:44:00,55.4,54.0,29.58,NW,319,4.0,5.0,95,0.13,,---,0.77,VWS V14.01,2013-06-13 23:44:00,
2013-06-13 19:49:00,55.4,54.0,29.58,NNW,342,0.0,3.0,95,0.12,,---,0.78,VWS V14.01,2013-06-13 23:49:00,
2013-06-13 19:54:00,55.3,53.9,29.58,West,260,0.0,0.0,95,0.12,,---,0.80,VWS V14.01,2013-06-13 23:54:00,
2013-06-13 19:59:00,55.3,53.9,29.58,West,276,0.0,4.0,95,0.11,,---,0.81,VWS V14.01,2013-06-13 23:59:00,
2013-06-13 20:04:00,55.3,54.2,29.57,WNW,302,0.0,0.0,96,0.10,,---,0.82,VWS V14.01,2013-06-14 00:04:00,
2013-06-13 20:09:00,55.3,54.2,29.57,NW,318,0.0,1.0,96,0.10,,---,0.84,VWS V14.01,2013-06-14 00:09:00,
2013-06-13 20:14:00,55.1,54.0,29.57,NW,317,1.0,1.0,96,0.11,,---,0.86,VWS V14.01,2013-06-14 00:14:00,
2013-06-13 20:19:00,55.1,54.0,29.56,NNW,331,0.0,1.0,96,0.13,,---,0.88,VWS V14.01,2013-06-14 00:19:00,
2013-06-13 20:24:00,55.0,53.9,29.57,East,81,0.0,5.0,96,0.12,,---,0.88,VWS V14.01,2013-06-14 00:24:00,
2013-06-13 20:30:00,55.0,53.9,29.57,West,274,0.0,5.0,96,0.13,,---,0.89,VWS V14.01,2013-06-14 00:30:00,
2013-06-13 20:36:00,54.8,53.7,29.57,SSW,202,0.0,6.0,96,0.14,,---,0.91,VWS V14.01,2013-06-14 00:36:00,
2013-06-13 20:41:00,54.8,53.7,29.57,WNW,301,1.0,4.0,96,0.16,,---,0.93,VWS V14.01,2013-06-14 00:41:00,
2013-06-13 20:46:00,54.8,53.7,29.57,SSW,207,0.0,0.0,96,0.17,,---,0.94,VWS V14.01,2013-06-14 00:46:00,
2013-06-13 20:51:00,54.8,53.7,29.56,ENE,63,2.0,3.0,96,0.17,,---,0.96,VWS V14.01,2013-06-14 00:51:00,
2013-06-13 20:56:00,54.7,53.6,29.56,WNW,286,0.0,1.0,96,0.18,,---,0.98,VWS V14.01,2013-06-14 00:56:00,
2013-06-13 21:01:00,54.7,53.6,29.56,SSW,199,0.0,1.0,96,0.16,,---,0.98,VWS V14.01,2013-06-14 01:01:00,
2013-06-13 21:07:00,54.7,53.6,29.56,SSE,153,0.0,5.0,96,0.16,,---,0.99,VWS V14.01,2013-06-14 01:07:00,
2013-06-13 21:12:00,54.5,53.4,29.56,NNE,15,1.0,3.0,96,0.16,,---,1.01,VWS V14.01,2013-06-14 01:12:00,
2013-06-13 21:17:00,54.5,53.4,29.56,WNW,298,3.0,5.0,96,0.15,,---,1.02,VWS V14.01,2013-06-14 01:17:00,
2013-06-13 21:23:00,54.4,53.3,29.56,NNE,28,2.0,6.0,96,0.16,,---,1.04,VWS V14.01,2013-06-14 01:23:00,
2013-06-13 21:28:00,54.4,53.3,29.56,NNW,336,0.0,0.0,96,0.19,,---,1.08,VWS V14.01,2013-06-14 01:28:00,
2013-06-13 21:33:00,54.4,53.3,29.56,NW,318,0.0,2.0,96,0.19,,---,1.09,VWS V14.01,2013-06-14 01:33:00,
2013-06-13 21:38:00,54.2,53.1,29.57,East,99,0.0,0.0,96,0.18,,---,1.10,VWS V14.01,2013-06-14 01:38:00,
2013-06-13 21:43:00,54.2,53.1,29.57,NNW,329,2.0,3.0,96,0.16,,---,1.10,VWS V14.01,2013-06-14 01:43:00,
2013-06-13 21:48:00,54.1,52.7,29.58,NNW,336,0.0,2.0,95,0.15,,---,1.10,VWS V14.01,2013-06-14 01:48:00,
2013-06-13 21:54:00,54.1,52.7,29.60,North,355,0.0,0.0,95,0.13,,---,1.10,VWS V14.01,2013-06-14 01:54:00,
2013-06-13 21:59:00,54.1,53.0,29.60,NNW,339,0.0,0.0,96,0.13,,---,1.11,VWS V14.01,2013-06-14 01:59:00,
2013-06-13 22:04:00,53.9,52.5,29.59,NW,325,1.0,3.0,95,0.14,,---,1.13,VWS V14.01,2013-06-14 02:04:00,
2013-06-13 22:09:00,53.9,52.5,29.58,NW,311,2.0,2.0,95,0.16,,---,1.16,VWS V14.01,2013-06-14 02:09:00,
2013-06-13 22:15:00,53.9,52.5,29.57,NNW,334,0.0,1.0,95,0.21,,---,1.22,VWS V14.01,2013-06-14 02:15:00,
2013-06-13 22:20:00,53.8,52.4,29.58,SSE,155,1.0,2.0,95,0.24,,---,1.26,VWS V14.01,2013-06-14 02:20:00,
2013-06-13 22:25:00,53.6,52.5,29.58,WNW,288,0.0,3.0,96,0.21,,---,1.27,VWS V14.01,2013-06-14 02:25:00,
2013-06-13 22:30:00,53.6,52.2,29.58,South,181,0.0,4.0,95,0.20,,---,1.28,VWS V14.01,2013-06-14 02:30:00,
2013-06-13 22:35:00,53.3,51.9,29.58,NNW,344,0.0,0.0,95,0.23,,---,1.32,VWS V14.01,2013-06-14 02:35:00,
2013-06-13 22:40:00,53.3,51.9,29.58,WNW,301,0.0,2.0,95,0.26,,---,1.36,VWS V14.01,2013-06-14 02:40:00,
2013-06-13 22:45:00,53.2,51.8,29.57,West,261,0.0,0.0,95,0.30,,---,1.40,VWS V14.01,2013-06-14 02:45:00,
2013-06-13 22:50:00,53.1,51.7,29.57,West,260,0.0,1.0,95,0.31,,---,1.41,VWS V14.01,2013-06-14 02:50:00,
2013-06-13 22:55:00,52.9,51.8,29.57,West,260,0.0,0.0,96,0.32,,---,1.42,VWS V14.01,2013-06-14 02:55:00,
2013-06-13 23:00:00,52.8,51.7,29.56,NW,315,0.0,0.0,96,0.31,,---,1.42,VWS V14.01,2013-06-14 03:00:00,
2013-06-13 23:05:00,52.8,51.7,29.56,NNW,344,0.0,0.0,96,0.30,,---,1.43,VWS V14.01,2013-06-14 03:05:00,
2013-06-13 23:10:00,52.6,51.5,29.56,NNW,333,0.0,0.0,96,0.28,,---,1.44,VWS V14.01,2013-06-14 03:10:00,
2013-06-13 23:15:00,52.6,51.5,29.56,ENE,61,2.0,4.0,96,0.22,,---,1.44,VWS V14.01,2013-06-14 03:15:00,
2013-06-13 23:20:00,52.5,51.4,29.56,SSW,200,0.0,1.0,96,0.18,,---,1.44,VWS V14.01,2013-06-14 03:20:00,
2013-06-13 23:25:00,52.5,51.4,29.56,West,281,2.0,3.0,96,0.18,,---,1.45,VWS V14.01,2013-06-14 03:25:00,
2013-06-13 23:30:00,52.3,51.2,29.56,NNE,23,3.0,3.0,96,0.18,,---,1.46,VWS V14.01,2013-06-14 03:30:00,
2013-06-13 23:35:00,52.3,51.2,29.56,East,95,0.0,4.0,96,0.14,,---,1.46,VWS V14.01,2013-06-14 03:35:00,
2013-06-13 23:41:00,52.2,51.1,29.56,NNW,344,0.0,5.0,96,0.10,,---,1.46,VWS V14.01,2013-06-14 03:41:00,
2013-06-13 23:46:00,52.2,51.1,29.56,NNW,330,1.0,4.0,96,0.07,,---,1.47,VWS V14.01,2013-06-14 03:46:00,
2013-06-13 23:51:00,52.0,50.6,29.56,North,9,0.0,3.0,95,0.07,,---,1.48,VWS V14.01,2013-06-14 03:51:00,
2013-06-13 23:56:00,52.0,50.6,29.56,NW,316,0.0,0.0,95,0.06,,---,1.48,VWS V14.01,2013-06-14 03:56:00,